EGEC/CAL METAR and TAF weather

Enter ICAO airport designator
Station Type Date Time Source
EGEC METAR 2021/04/14 08:50 UTC NOAA

EGEC 140850Z 15002KT 9999 FEW009 08/06 Q1034


Station Type Date Time Source
EGEC Decoded METAR 2021/04/14 08:50 UTC NOAA

Campbeltown, United Kingdom (EGEC) 55-26-14N 005-41-11W
Apr 14, 2021 - 04:50 AM EDT / 2021.04.14 0850 UTC
Wind: from the SSE (150 degrees) at 2 MPH (2 KT):0
Visibility: greater than 7 mile(s):0
Sky conditions: mostly clear
Temperature: 46 F (8 C)
Dew Point: 42 F (6 C)
Relative Humidity: 87%
Pressure (altimeter): 30.53 in. Hg (1034 hPa)
ob: EGEC 140850Z 15002KT 9999 FEW009 08/06 Q1034
cycle: 9

Station Type Date Time Source
EGEC TAF UTC NOAA

Error!

Example: see airport list